createdAt,value
2022-10-27T00:01:00.572Z,3.10
2022-10-27T00:03:33.110Z,4.07
2022-10-27T00:06:05.595Z,2.93
2022-10-27T00:08:35.759Z,3.70
2022-10-27T00:11:05.862Z,3.87
2022-10-27T00:13:33.858Z,4.03
2022-10-27T00:16:03.746Z,3.77
2022-10-27T00:18:32.316Z,3.77
2022-10-27T00:21:02.189Z,2.90
2022-10-27T00:23:31.512Z,2.33
2022-10-27T00:26:01.643Z,3.40
2022-10-27T00:28:30.051Z,3.67
2022-10-27T00:31:01.977Z,3.20
2022-10-27T00:33:30.739Z,3.53
2022-10-27T00:36:03.983Z,3.20
2022-10-27T00:38:31.856Z,3.33
2022-10-27T00:41:01.198Z,3.77
2022-10-27T00:43:31.331Z,3.83
2022-10-27T00:46:03.809Z,3.03
2022-10-27T00:48:32.661Z,3.33
2022-10-27T00:51:03.705Z,3.73
2022-10-27T00:53:32.623Z,3.30
2022-10-27T00:56:02.647Z,3.77
2022-10-27T00:58:31.421Z,3.83
2022-10-27T01:00:59.485Z,3.13
2022-10-27T01:03:27.710Z,3.40
2022-10-27T01:05:58.434Z,3.20
2022-10-27T01:08:28.241Z,3.47
2022-10-27T01:10:56.152Z,3.20
2022-10-27T01:13:26.188Z,3.50
2022-10-27T01:16:07.596Z,4.03
2022-10-27T01:18:46.948Z,3.73
2022-10-27T01:21:49.249Z,2.57
2022-10-27T01:24:41.952Z,2.37
2022-10-27T01:27:21.984Z,2.73
2022-10-27T01:30:06.136Z,2.40
2022-10-27T01:32:44.124Z,2.40
2022-10-27T01:35:19.603Z,2.27
2022-10-27T01:37:51.739Z,2.67
2022-10-27T01:40:25.690Z,1.97
2022-10-27T01:42:58.458Z,2.20
2022-10-27T01:45:30.429Z,2.17
2022-10-27T01:48:00.849Z,2.43
2022-10-27T01:50:40.343Z,2.60
2022-10-27T01:53:19.501Z,2.20
2022-10-27T01:56:00.486Z,2.80
2022-10-27T01:58:50.316Z,2.50
2022-10-27T02:01:37.895Z,2.10
2022-10-27T02:04:14.440Z,2.10
2022-10-27T02:06:49.115Z,2.53
2022-10-27T02:09:25.234Z,2.33
2022-10-27T02:11:56.886Z,2.00
2022-10-27T02:14:25.628Z,2.33
2022-10-27T02:16:54.967Z,2.03
2022-10-27T02:19:28.544Z,2.47
2022-10-27T02:21:59.540Z,2.33
2022-10-27T02:24:28.246Z,2.50
2022-10-27T02:27:00.386Z,2.20
2022-10-27T02:29:36.772Z,2.57
2022-10-27T02:32:09.113Z,2.50
2022-10-27T02:34:40.013Z,2.77
2022-10-27T02:37:10.574Z,2.23
2022-10-27T02:39:38.677Z,2.50
2022-10-27T02:42:07.163Z,2.00
2022-10-27T02:44:35.125Z,2.40
2022-10-27T02:47:04.293Z,2.77
2022-10-27T02:49:34.057Z,4.07
2022-10-27T02:52:04.821Z,6.67
2022-10-27T02:54:32.925Z,7.07
2022-10-27T02:57:01.096Z,6.93
2022-10-27T02:59:28.986Z,6.60
2022-10-27T03:01:57.019Z,5.07
2022-10-27T03:04:25.096Z,6.17
2022-10-27T03:06:53.194Z,5.97
2022-10-27T03:09:22.547Z,5.33
2022-10-27T03:11:50.633Z,5.80
2022-10-27T03:14:18.602Z,6.03
2022-10-27T03:16:46.474Z,5.63
2022-10-27T03:19:20.924Z,5.43
2022-10-27T03:21:48.788Z,5.43
2022-10-27T03:24:16.766Z,6.20
2022-10-27T03:26:46.156Z,5.83
2022-10-27T03:29:14.266Z,5.43
2022-10-27T03:31:42.768Z,5.53
2022-10-27T03:34:10.831Z,6.47
2022-10-27T03:36:38.835Z,5.40
2022-10-27T03:39:06.952Z,6.37
2022-10-27T03:41:35.078Z,5.43
2022-10-27T03:44:04.483Z,6.10
2022-10-27T03:46:32.452Z,5.73
2022-10-27T03:49:00.458Z,6.80
2022-10-27T03:51:29.118Z,6.30
2022-10-27T03:53:58.447Z,5.93
2022-10-27T03:56:26.433Z,5.90
2022-10-27T03:58:54.324Z,6.33
2022-10-27T04:01:24.276Z,5.93
2022-10-27T04:03:52.262Z,5.70
2022-10-27T04:06:20.141Z,4.83
2022-10-27T04:08:48.194Z,6.20
2022-10-27T04:11:16.121Z,6.57
2022-10-27T04:13:44.010Z,5.70
2022-10-27T04:16:11.856Z,5.23
2022-10-27T04:18:41.167Z,5.50
2022-10-27T04:21:09.018Z,5.07
2022-10-27T04:23:36.887Z,5.50
2022-10-27T04:26:04.948Z,6.07
2022-10-27T04:28:32.785Z,5.97
2022-10-27T04:31:01.052Z,4.67
2022-10-27T04:33:29.356Z,5.50
2022-10-27T04:36:00.449Z,4.70
2022-10-27T04:38:28.604Z,4.50
2022-10-27T04:40:56.960Z,4.90
2022-10-27T04:43:24.860Z,5.70
2022-10-27T04:45:52.723Z,4.90
2022-10-27T04:48:20.666Z,5.50
2022-10-27T04:50:48.573Z,5.77
2022-10-27T04:53:17.814Z,6.13
2022-10-27T04:55:45.783Z,4.20
2022-10-27T04:58:13.652Z,4.60
2022-10-27T05:00:42.956Z,4.83
2022-10-27T05:03:12.369Z,5.43
2022-10-27T05:05:40.228Z,5.83
2022-10-27T05:08:08.314Z,5.70
2022-10-27T05:10:37.611Z,5.23
2022-10-27T05:13:05.930Z,6.53
2022-10-27T05:15:34.175Z,6.33
2022-10-27T05:18:02.961Z,7.10
2022-10-27T05:20:31.332Z,6.40
2022-10-27T05:22:59.228Z,9.97
2022-10-27T05:25:27.160Z,13.07
2022-10-27T05:28:04.082Z,8.93
2022-10-27T05:30:32.764Z,15.00
2022-10-27T05:33:01.598Z,11.53
2022-10-27T05:35:29.574Z,8.97
2022-10-27T05:37:57.734Z,8.27
2022-10-27T05:40:25.743Z,11.73
2022-10-27T05:42:56.953Z,10.20
2022-10-27T05:45:25.883Z,14.70
2022-10-27T05:47:58.868Z,12.23
2022-10-27T05:50:27.834Z,6.57
2022-10-27T05:52:55.838Z,7.20
2022-10-27T05:55:24.883Z,8.37
2022-10-27T05:57:59.030Z,8.73
2022-10-27T06:00:30.723Z,8.30
2022-10-27T06:02:59.999Z,9.63
2022-10-27T06:05:29.260Z,9.70
2022-10-27T06:07:57.267Z,10.47
2022-10-27T06:10:26.043Z,10.37
2022-10-27T06:12:53.897Z,8.60
2022-10-27T06:15:23.241Z,10.77
2022-10-27T06:17:54.184Z,12.27
2022-10-27T06:20:22.344Z,10.97
2022-10-27T06:22:50.701Z,10.43
2022-10-27T06:25:18.923Z,11.97
2022-10-27T06:27:47.041Z,9.93
2022-10-27T06:30:15.625Z,11.07
2022-10-27T06:32:44.893Z,9.00
2022-10-27T06:35:12.933Z,9.27
2022-10-27T06:37:41.521Z,7.83
2022-10-27T06:40:10.251Z,8.60
2022-10-27T06:42:48.978Z,8.37
2022-10-27T06:45:18.416Z,8.47
2022-10-27T06:47:56.418Z,8.70
2022-10-27T06:50:24.396Z,7.83
2022-10-27T06:52:52.834Z,7.87
2022-10-27T06:55:21.300Z,7.47
2022-10-27T06:57:49.852Z,7.63
2022-10-27T07:00:18.275Z,8.07
2022-10-27T07:02:48.067Z,10.17
2022-10-27T07:05:16.276Z,10.00
2022-10-27T07:07:48.950Z,10.60
2022-10-27T07:10:17.522Z,10.27
2022-10-27T07:12:58.963Z,7.13
2022-10-27T07:15:28.776Z,6.83
2022-10-27T07:18:00.034Z,6.50
2022-10-27T07:20:29.817Z,9.00
2022-10-27T07:22:58.129Z,6.47
2022-10-27T07:25:26.351Z,8.50
2022-10-27T07:27:55.287Z,7.80
2022-10-27T07:30:26.275Z,10.80
2022-10-27T07:32:54.343Z,8.80
2022-10-27T07:35:24.002Z,7.07
2022-10-27T07:37:53.076Z,9.57
2022-10-27T07:40:28.753Z,9.00
2022-10-27T07:43:05.130Z,9.97
2022-10-27T07:45:37.249Z,10.27
2022-10-27T07:48:06.410Z,10.07
2022-10-27T07:50:35.889Z,9.63
2022-10-27T07:53:04.167Z,10.33
2022-10-27T07:55:34.548Z,10.87
2022-10-27T07:58:03.872Z,13.30
2022-10-27T08:00:32.979Z,12.67
2022-10-27T08:03:01.794Z,12.30
2022-10-27T08:05:29.853Z,11.10
2022-10-27T08:08:03.856Z,11.53
2022-10-27T08:10:32.683Z,11.53
2022-10-27T08:13:00.840Z,10.27
2022-10-27T08:15:29.039Z,10.33
2022-10-27T08:18:01.774Z,9.07
2022-10-27T08:20:32.264Z,8.93
2022-10-27T08:23:03.155Z,9.93
2022-10-27T08:25:32.099Z,9.60
2022-10-27T08:28:00.464Z,8.23
2022-10-27T08:30:33.509Z,9.67
2022-10-27T08:33:05.145Z,8.60
2022-10-27T08:35:34.785Z,8.60
2022-10-27T08:38:06.429Z,8.17
2022-10-27T08:40:43.647Z,8.40
2022-10-27T08:43:32.656Z,6.67
2022-10-27T08:46:05.725Z,6.80
2022-10-27T08:48:35.991Z,4.83
2022-10-27T08:51:04.576Z,6.70
2022-10-27T08:53:38.750Z,6.57
2022-10-27T08:56:10.593Z,7.33
2022-10-27T08:58:41.187Z,6.93
2022-10-27T09:01:20.087Z,7.60
2022-10-27T09:04:12.515Z,6.83
2022-10-27T09:06:47.916Z,7.57
2022-10-27T09:09:28.581Z,6.20
2022-10-27T09:12:06.317Z,6.80
2022-10-27T09:14:54.823Z,5.70
2022-10-27T09:17:29.212Z,6.87
2022-10-27T09:20:04.876Z,6.17
2022-10-27T09:22:39.318Z,5.90
2022-10-27T09:25:17.856Z,5.27
2022-10-27T09:27:48.400Z,6.23
2022-10-27T09:30:17.593Z,6.43
2022-10-27T09:32:49.640Z,5.60
2022-10-27T09:35:22.223Z,5.27
2022-10-27T09:37:51.602Z,4.80
2022-10-27T09:40:23.125Z,6.47
2022-10-27T09:42:54.369Z,5.67
2022-10-27T09:45:24.822Z,6.33
2022-10-27T09:47:56.676Z,5.57
2022-10-27T09:50:27.046Z,6.27
2022-10-27T09:52:55.113Z,5.80
2022-10-27T09:55:24.530Z,5.60
2022-10-27T09:57:55.314Z,4.97
2022-10-27T10:00:29.252Z,4.97
2022-10-27T10:05:33.082Z,5.80
2022-10-27T10:08:15.688Z,5.80
2022-10-27T10:10:56.131Z,4.43
2022-10-27T10:13:25.032Z,5.30
2022-10-27T10:16:07.832Z,6.97
2022-10-27T10:18:36.607Z,10.73
2022-10-27T10:21:06.478Z,5.90
2022-10-27T10:23:37.052Z,5.27
2022-10-27T10:26:17.466Z,4.27
2022-10-27T10:28:47.120Z,3.77
2022-10-27T10:31:24.719Z,3.40
2022-10-27T10:33:54.561Z,3.77
2022-10-27T10:36:28.949Z,3.20
2022-10-27T10:38:58.357Z,3.07
2022-10-27T10:41:28.790Z,3.33
2022-10-27T10:44:12.023Z,3.47
2022-10-27T10:46:42.542Z,3.40
2022-10-27T10:49:21.520Z,3.00
2022-10-27T10:51:53.586Z,2.90
2022-10-27T10:54:26.636Z,2.83
2022-10-27T10:56:57.155Z,3.23
2022-10-27T10:59:29.372Z,1.87
2022-10-27T11:02:06.372Z,2.67
2022-10-27T11:04:42.045Z,1.77
2022-10-27T11:07:23.977Z,2.40
2022-10-27T11:09:59.623Z,2.20
2022-10-27T11:12:36.344Z,2.37
2022-10-27T11:15:14.416Z,2.57
2022-10-27T11:17:52.275Z,2.03
2022-10-27T11:20:23.175Z,1.97
2022-10-27T11:22:53.648Z,1.80
2022-10-27T11:25:24.874Z,3.03
2022-10-27T11:28:04.913Z,1.70
2022-10-27T11:30:38.987Z,1.73
2022-10-27T11:33:20.570Z,1.70
2022-10-27T11:35:55.093Z,2.37
2022-10-27T11:38:32.071Z,1.87
2022-10-27T11:41:06.405Z,1.90
2022-10-27T11:43:43.584Z,1.97
2022-10-27T11:46:18.538Z,1.73
2022-10-27T11:48:52.725Z,1.50
2022-10-27T11:51:27.024Z,2.03
2022-10-27T11:53:54.998Z,1.70
2022-10-27T11:56:36.920Z,1.50
2022-10-27T11:59:18.613Z,1.57
2022-10-27T12:01:59.525Z,1.60
2022-10-27T12:04:40.580Z,1.60
2022-10-27T12:07:16.111Z,1.47
2022-10-27T12:09:59.689Z,1.77
2022-10-27T12:12:34.714Z,1.70
2022-10-27T12:15:15.242Z,1.53
2022-10-27T12:17:50.014Z,1.83
2022-10-27T12:20:22.853Z,1.93
2022-10-27T12:23:00.583Z,2.37
2022-10-27T12:25:33.865Z,1.80
2022-10-27T12:28:07.033Z,2.00
2022-10-27T12:30:42.270Z,1.97
2022-10-27T12:33:18.105Z,1.53
2022-10-27T12:35:51.039Z,1.50
2022-10-27T12:38:24.894Z,1.67
2022-10-27T12:40:57.658Z,1.53
2022-10-27T12:43:37.596Z,1.63
2022-10-27T12:46:24.529Z,1.57
2022-10-27T12:49:04.325Z,1.50
2022-10-27T12:51:44.349Z,1.73
2022-10-27T12:54:31.367Z,1.90
2022-10-27T12:57:11.760Z,1.50
2022-10-27T12:59:53.117Z,1.70
2022-10-27T13:02:27.644Z,1.40
2022-10-27T13:05:18.956Z,1.20
2022-10-27T13:08:04.750Z,1.37
2022-10-27T13:10:48.657Z,1.40
2022-10-27T13:13:40.056Z,1.30
2022-10-27T13:16:15.929Z,1.60
2022-10-27T13:19:00.321Z,1.70
2022-10-27T13:21:37.765Z,1.73
2022-10-27T13:24:19.267Z,1.47
2022-10-27T13:26:54.239Z,1.40
2022-10-27T13:29:36.851Z,1.70
2022-10-27T13:32:32.792Z,1.60
2022-10-27T13:35:31.166Z,1.30
2022-10-27T13:38:29.096Z,1.40
2022-10-27T13:40:58.508Z,1.60
2022-10-27T13:43:59.157Z,2.00
2022-10-27T13:47:11.893Z,1.53
2022-10-27T13:49:58.927Z,1.90
2022-10-27T13:52:30.042Z,1.70
2022-10-27T13:55:00.295Z,1.80
2022-10-27T13:57:56.592Z,1.20
2022-10-27T14:00:27.391Z,1.63
2022-10-27T14:03:16.280Z,1.40
2022-10-27T14:05:47.714Z,1.50
2022-10-27T14:08:24.364Z,1.60
2022-10-27T14:10:53.516Z,1.47
2022-10-27T14:13:25.764Z,1.63
2022-10-27T14:15:59.048Z,1.77
2022-10-27T14:18:32.990Z,2.10
2022-10-27T14:21:12.587Z,1.90
2022-10-27T14:23:42.446Z,2.30
2022-10-27T14:26:31.761Z,1.73
2022-10-27T14:29:00.161Z,1.90
2022-10-27T14:31:30.226Z,1.47
2022-10-27T14:34:16.542Z,2.20
2022-10-27T14:36:44.514Z,2.30
2022-10-27T14:39:25.216Z,2.60
2022-10-27T14:41:54.809Z,2.37
2022-10-27T14:44:27.162Z,1.80
2022-10-27T14:46:58.430Z,1.53
2022-10-27T14:49:33.872Z,1.90
2022-10-27T14:52:06.751Z,2.00
2022-10-27T14:54:37.619Z,1.90
2022-10-27T14:57:28.760Z,1.67
2022-10-27T14:59:56.704Z,2.00
2022-10-27T15:02:26.235Z,1.60
2022-10-27T15:04:54.408Z,1.60
2022-10-27T15:07:24.093Z,1.80
2022-10-27T15:09:53.442Z,1.70
2022-10-27T15:12:28.180Z,1.90
2022-10-27T15:14:57.552Z,2.20
2022-10-27T15:17:31.651Z,2.80
2022-10-27T15:20:01.437Z,1.97
2022-10-27T15:22:31.007Z,2.30
2022-10-27T15:25:01.259Z,1.80
2022-10-27T15:27:33.697Z,2.00
2022-10-27T15:30:02.706Z,2.27
2022-10-27T15:32:38.966Z,2.50
2022-10-27T15:35:28.965Z,1.97
2022-10-27T15:37:57.006Z,2.30
2022-10-27T15:40:35.774Z,2.77
2022-10-27T15:43:04.396Z,2.70
2022-10-27T15:45:39.668Z,2.87
2022-10-27T15:48:27.460Z,2.33
2022-10-27T15:50:59.518Z,2.63
2022-10-27T15:53:27.596Z,2.07
2022-10-27T15:56:05.181Z,2.40
2022-10-27T15:58:36.807Z,2.30
2022-10-27T16:01:11.401Z,2.57
2022-10-27T16:03:44.880Z,2.30
2022-10-27T16:06:27.960Z,2.60
2022-10-27T16:08:58.439Z,3.40
2022-10-27T16:11:33.909Z,2.53
2022-10-27T16:14:05.183Z,2.90
2022-10-27T16:16:36.281Z,3.70
2022-10-27T16:19:05.990Z,3.90
2022-10-27T16:21:35.488Z,3.47
2022-10-27T16:24:13.920Z,3.50
2022-10-27T16:26:43.357Z,4.20
2022-10-27T16:29:16.759Z,4.53
2022-10-27T16:31:45.525Z,4.60
2022-10-27T16:34:22.425Z,4.47
2022-10-27T16:36:53.115Z,5.70
2022-10-27T16:39:21.384Z,5.67
2022-10-27T16:41:50.885Z,6.37
2022-10-27T16:44:18.761Z,5.37
2022-10-27T16:46:46.677Z,5.23
2022-10-27T16:49:15.270Z,5.90
2022-10-27T16:51:43.156Z,6.00
2022-10-27T16:54:11.089Z,5.50
2022-10-27T16:56:38.972Z,5.70
2022-10-27T16:59:08.321Z,5.03
2022-10-27T17:01:36.345Z,4.60
2022-10-27T17:04:04.494Z,4.27
2022-10-27T17:06:32.442Z,3.47
2022-10-27T17:09:00.353Z,3.60
2022-10-27T17:11:28.508Z,4.87
2022-10-27T17:13:56.707Z,5.53
2022-10-27T17:16:26.100Z,5.90
2022-10-27T17:18:54.051Z,5.33
2022-10-27T17:21:21.936Z,5.77
2022-10-27T17:23:49.825Z,5.03
2022-10-27T17:26:18.215Z,3.67
2022-10-27T17:28:48.555Z,5.60
2022-10-27T17:31:21.051Z,4.53
2022-10-27T17:33:56.219Z,5.33
2022-10-27T17:36:24.960Z,6.27
2022-10-27T17:38:52.887Z,6.90
2022-10-27T17:41:20.853Z,6.97
2022-10-27T17:43:49.061Z,5.97
2022-10-27T17:46:18.708Z,5.07
2022-10-27T17:48:50.021Z,6.03
2022-10-27T17:51:21.310Z,6.63
2022-10-27T17:53:49.832Z,6.33
2022-10-27T17:56:19.529Z,5.63
2022-10-27T17:58:48.094Z,4.20
2022-10-27T18:01:18.767Z,5.20
2022-10-27T18:03:48.317Z,5.40
2022-10-27T18:06:17.902Z,5.33
2022-10-27T18:08:52.861Z,5.63
2022-10-27T18:11:23.950Z,4.70
2022-10-27T18:13:53.282Z,5.57
2022-10-27T18:16:24.062Z,5.30
2022-10-27T18:18:52.744Z,5.10
2022-10-27T18:21:20.816Z,4.93
2022-10-27T18:23:51.711Z,5.27
2022-10-27T18:26:20.153Z,4.90
2022-10-27T18:28:49.273Z,4.37
2022-10-27T18:31:20.610Z,4.03
2022-10-27T18:33:49.014Z,5.00
2022-10-27T18:36:18.588Z,5.77
2022-10-27T18:38:46.995Z,4.27
2022-10-27T18:41:18.243Z,4.27
2022-10-27T18:43:48.276Z,4.23
2022-10-27T18:46:17.383Z,3.40
2022-10-27T18:48:49.344Z,3.90
2022-10-27T18:51:19.180Z,3.87
2022-10-27T18:53:47.948Z,3.47
2022-10-27T18:56:17.348Z,4.27
2022-10-27T18:58:46.639Z,4.30
2022-10-27T19:01:16.449Z,3.77
2022-10-27T19:03:45.327Z,3.63
2022-10-27T19:06:14.594Z,3.93
2022-10-27T19:08:42.561Z,3.20
2022-10-27T19:11:12.722Z,3.20
2022-10-27T19:13:42.867Z,3.23
2022-10-27T19:16:13.314Z,3.20
2022-10-27T19:18:41.323Z,4.10
2022-10-27T19:21:13.456Z,3.73
2022-10-27T19:23:41.405Z,3.57
2022-10-27T19:26:11.246Z,3.10
2022-10-27T19:28:42.266Z,2.87
2022-10-27T19:31:16.056Z,3.37
2022-10-27T19:33:45.717Z,3.70
2022-10-27T19:36:16.456Z,3.00
2022-10-27T19:38:44.588Z,2.50
2022-10-27T19:41:13.606Z,3.10
2022-10-27T19:43:45.744Z,3.73
2022-10-27T19:46:17.800Z,3.47
2022-10-27T19:48:46.087Z,3.13
2022-10-27T19:51:15.401Z,3.30
2022-10-27T19:53:43.954Z,3.40
2022-10-27T19:56:11.896Z,3.27
2022-10-27T19:58:41.180Z,3.30
2022-10-27T20:01:18.809Z,3.70
2022-10-27T20:03:47.681Z,3.40
2022-10-27T20:06:16.159Z,4.10
2022-10-27T20:08:45.610Z,3.63
2022-10-27T20:11:15.591Z,3.23
2022-10-27T20:13:46.775Z,3.07
2022-10-27T20:16:17.944Z,3.43
2022-10-27T20:18:46.642Z,4.60
2022-10-27T20:21:15.972Z,4.60
2022-10-27T20:23:44.533Z,4.30
2022-10-27T20:26:30.364Z,3.97
2022-10-27T20:28:59.432Z,4.40
2022-10-27T20:31:29.653Z,4.07
2022-10-27T20:33:58.175Z,3.77
2022-10-27T20:36:26.437Z,3.87
2022-10-27T20:38:55.590Z,4.30
2022-10-27T20:41:25.751Z,4.57
2022-10-27T20:43:54.809Z,4.90
2022-10-27T20:46:23.641Z,4.03
2022-10-27T20:48:53.834Z,4.87
2022-10-27T20:51:23.103Z,5.00
2022-10-27T20:53:52.872Z,4.87
2022-10-27T20:56:22.204Z,5.27
2022-10-27T20:58:50.580Z,5.27
2022-10-27T21:01:27.501Z,7.07
2022-10-27T21:03:58.336Z,10.40
2022-10-27T21:06:28.945Z,14.50
2022-10-27T21:08:57.486Z,11.70
2022-10-27T21:11:26.457Z,10.13
2022-10-27T21:13:56.017Z,9.57
2022-10-27T21:16:24.788Z,9.53
2022-10-27T21:18:54.202Z,8.53
2022-10-27T21:21:25.644Z,8.70
2022-10-27T21:23:54.239Z,8.97
2022-10-27T21:26:23.853Z,8.20
2022-10-27T21:28:53.344Z,7.13
2022-10-27T21:31:23.550Z,7.73
2022-10-27T21:33:52.517Z,8.43
2022-10-27T21:36:20.859Z,9.60
2022-10-27T21:38:51.689Z,8.53
2022-10-27T21:41:22.491Z,9.10
2022-10-27T21:43:51.875Z,9.00
2022-10-27T21:46:21.576Z,8.10
2022-10-27T21:48:53.876Z,8.27
2022-10-27T21:51:21.920Z,8.07
2022-10-27T21:54:00.445Z,7.60
2022-10-27T21:56:30.258Z,8.97
2022-10-27T21:58:58.413Z,8.57
2022-10-27T22:01:26.688Z,7.70
2022-10-27T22:03:54.835Z,6.70
2022-10-27T22:06:24.166Z,8.57
2022-10-27T22:08:54.061Z,8.03
2022-10-27T22:11:23.651Z,8.80
2022-10-27T22:13:52.498Z,7.53
2022-10-27T22:16:22.514Z,8.10
2022-10-27T22:18:54.735Z,7.83
2022-10-27T22:21:23.052Z,7.47
2022-10-27T22:23:51.066Z,6.47
2022-10-27T22:26:22.058Z,6.90
2022-10-27T22:28:50.781Z,5.73
2022-10-27T22:31:21.454Z,4.90
2022-10-27T22:33:51.207Z,5.60
2022-10-27T22:36:21.119Z,5.20
2022-10-27T22:38:53.705Z,4.43
2022-10-27T22:41:23.433Z,3.80
2022-10-27T22:43:51.469Z,4.53
2022-10-27T22:46:21.288Z,3.60
2022-10-27T22:48:49.984Z,4.70
2022-10-27T22:51:19.947Z,3.83
2022-10-27T22:53:49.171Z,3.70
2022-10-27T22:56:18.860Z,3.40
2022-10-27T22:58:50.333Z,2.87
2022-10-27T23:01:20.524Z,2.90
2022-10-27T23:03:52.994Z,3.90
2022-10-27T23:06:21.906Z,2.43
2022-10-27T23:08:53.661Z,2.73
2022-10-27T23:11:21.732Z,3.70
2022-10-27T23:13:51.340Z,3.23
2022-10-27T23:16:19.281Z,2.60
2022-10-27T23:18:47.237Z,2.87
2022-10-27T23:21:16.641Z,2.77
2022-10-27T23:23:44.889Z,2.60
2022-10-27T23:26:20.164Z,3.30
2022-10-27T23:28:53.844Z,3.37
2022-10-27T23:31:22.900Z,3.30
2022-10-27T23:33:54.200Z,3.57
2022-10-27T23:36:22.945Z,3.57
2022-10-27T23:38:51.569Z,5.27
2022-10-27T23:41:19.849Z,4.13
2022-10-27T23:43:50.452Z,4.50
2022-10-27T23:46:20.237Z,3.67
2022-10-27T23:48:48.201Z,3.87
2022-10-27T23:51:16.761Z,3.60
2022-10-27T23:53:44.937Z,3.43
2022-10-27T23:56:13.638Z,2.93
2022-10-27T23:58:45.009Z,3.37
